Flight Track Log - Related Links

Times and Time Zones

All times are in EDT time to prevent confusion due to time zone crossing. See the N302SJ flight status page for this flight to view local times or setup timezone preferences in your user account.

Time Position Orientation Groundspeed Altitude Reporting Facility
EDT Latitude Longitude Course Direction KTS MPH feet Rate Location/Type
Fri 12:30:53 PM 39.3333 -76.5667 243° Southwest 261 300 4,800  Level Potomac TRACON
Fri 12:31:53 PM 39.3167 -76.6500 256° West 228 262 7,700 2,650 Climbing Potomac TRACON
Fri 12:32:53 PM 39.3000 -76.7167 252° West 242 278 10,100 2,450 Climbing Potomac TRACON
Fri 12:33:53 PM 39.2667 -76.8000 243° Southwest 236 272 12,600 2,331 Climbing Potomac TRACON
Fri 12:35:00 PM 39.0125 -76.7888 225° Southwest  Level FlightAware Approximate
Fri 12:35:48 PM 39.2247 -76.9525 250° West 227 261 16,900  Level Washington Center
Fri 12:36:54 PM 39.2000 -77.0500 252° West 296 341 17,000 190 Climbing Potomac TRACON
Fri 12:37:54 PM 39.1333 -77.1333 224° Southwest 328 377 17,300 526 Climbing Potomac TRACON
Fri 12:38:48 PM 39.0667 -77.1833 210° Southwest 321 369 18,000 350 Climbing Potomac TRACON
Fri 12:39:54 PM 38.9833 -77.2333 205° Southwest 344 396 18,000 -100 Level Potomac TRACON
Fri 12:40:48 PM 38.9000 -77.2833 205° Southwest 357 411 17,800  Descending Potomac TRACON
Fri 12:41:48 PM 38.8000 -77.3333 201° Southwest 355 409 18,000 100 Climbing Potomac TRACON
Fri 12:42:48 PM 38.7167 -77.3833 205° Southwest 364 419 18,000  Level Potomac TRACON
Fri 12:43:50 PM 38.6239 -77.4411 206° Southwest 364 419 18,000  Level Washington Center
Fri 12:44:48 PM 38.5314 -77.4947 204° Southwest 364 419 18,000  Level Washington Center
Fri 12:45:49 PM 38.4431 -77.5481 205° Southwest 364 419 18,000  Level Washington Center
Fri 12:46:50 PM 38.3644 -77.6306 219° Southwest 364 419 18,000  Level Washington Center
Fri 12:47:50 PM 38.2981 -77.7267 229° Southwest 364 419 18,000  Level Washington Center
Fri 12:48:50 PM 38.2422 -77.8256 234° Southwest 359 413 18,000  Level Washington Center
Fri 12:49:50 PM 38.1797 -77.9242 231° Southwest 359 413 18,000  Level Washington Center
Fri 12:50:48 PM 38.1175 -78.0200 230° Southwest 359 413 18,000  Level Washington Center
Fri 12:51:49 PM 38.0550 -78.1156 230° Southwest 359 413 18,000 -248 Level Washington Center
Fri 12:52:49 PM 37.9967 -78.2058 231° Southwest 359 413 17,500 -694 Descending Washington Center
Fri 12:53:50 PM 37.9342 -78.3008 230° Southwest 354 407 16,600 -893 Descending Washington Center
Fri 12:54:50 PM 37.8714 -78.3961 230° Southwest 354 407 15,700 -864 Descending Washington Center
Fri 12:55:48 PM 37.8131 -78.4833 230° Southwest 349 402 14,900 -908 Descending Washington Center
Fri 12:56:49 PM 37.7611 -78.5653 231° Southwest 344 396 13,900 -1,131 Descending Washington Center
Fri 12:57:50 PM 37.7006 -78.6522 229° Southwest 344 396 12,600 -1,140 Descending Washington Center
Fri 12:58:50 PM 37.6419 -78.7417 230° Southwest 344 396 11,600 -1,119 Descending Washington Center
Fri 12:59:48 PM 37.5789 -78.8358 230° Southwest 339 390 10,400 -814 Descending Washington Center
Fri 01:00:48 PM 37.5244 -78.9147 229° Southwest 323 372 10,000 -1,426 Descending Washington Center
Fri 01:01:50 PM 37.4681 -78.9961 229° Southwest 318 366 7,500 -2,803 Descending Washington Center
Fri 01:02:50 PM 37.4136 -79.0694 227° Southwest 308 354 4,300 -2,441 Descending Washington Center
Fri 01:03:48 PM 37.3617 -79.1378 226° Southwest 294 338 2,700 -1,322 Descending Washington Center
Fri 01:04:48 PM 37.3142 -79.1903 221° Southwest 276 318 1,700 -744 Descending Washington Center
Fri 01:05:49 PM 37.3028 -79.2186 243° Southwest 176 203 1,200 -397 Descending Washington Center
Fri 01:06:49 PM 37.3222 -79.2039 31° Northeast 41 47 900 -300 Descending Washington Center

Login

Don't have an account? Register now (free) for customized features, flight alerts, and more!